»·PEaware :: COA1025 MMMX-KIAH

COA1025 :: MMMX-KIAH

FLIGHT INFORMATION

Flight Status: Arrived
Operator:
Continental Air Lines
More flights by this operator :: More flights under this callsign
Pilot: Robby H. (353)
Aircraft: BOEING 767-200
(B762)
More flights by this aircraft type
Origin: MMMX Lic Benito Juarez Intl
Mexico
Destination: KIAH G Bush Intercontinental/Houst
United States
More flights between these airports :: More routes between these airports
Route: MAM BRO CRP HAMMU1
File this flight plan on PilotEdge
Remarks: / V /
Altitude:
(Current/Filed)
31,000ft
Speed:
(Current/Filed)
532kts
Departed: 31-Dec-11 01:59 PM
Arrived: 31-Dec-11 03:28 PM
Distance/Time
Traveled:
665nm/1:29
Distance/Time
To Go:
Arrived

Flight Plot

Page will automatically refresh every two minutes.


Map Options




Map Legend


Flown Route
Filed Route
Departure Airport
Arrival Airport
Navaid (VOR, NDB)
Fix

Horizontal Profiles

Position Reports

Time Latitude Longitude Heading Altitude Ground
Speed
31-Dec-11 13:55 19.423976 -99.080792 203 7328ft 2kts
31-Dec-11 13:56 19.425591 -99.082145 247 7328ft 18kts
31-Dec-11 13:57 19.426317 -99.086591 35 7328ft 34kts
31-Dec-11 13:58 19.446167 -99.051797 59 7454ft 225kts
31-Dec-11 13:59 19.510972 -99.021057 10 9157ft 315kts
31-Dec-11 14:01 19.721885 -98.972982 12 12822ft 419kts
31-Dec-11 14:02 19.837722 -98.946402 12 14621ft 432kts
31-Dec-11 14:03 19.956485 -98.919142 12 15732ft 440kts
31-Dec-11 14:04 20.077489 -98.891369 11 16736ft 447kts
31-Dec-11 14:05 20.199422 -98.863332 11 17732ft 453kts
31-Dec-11 14:06 20.323360 -98.834715 11 18731ft 460kts
31-Dec-11 14:07 20.450568 -98.805300 11 19743ft 468kts
31-Dec-11 14:08 20.579072 -98.775557 11 20745ft 475kts
31-Dec-11 14:09 20.709985 -98.745170 11 21754ft 482kts
31-Dec-11 14:10 20.841934 -98.714582 10 22757ft 489kts
31-Dec-11 14:11 20.975148 -98.683583 10 23753ft 496kts
31-Dec-11 14:12 21.112082 -98.651659 10 24761ft 503kts
31-Dec-11 14:13 21.248648 -98.619784 10 25755ft 510kts
31-Dec-11 14:14 21.388621 -98.586991 10 26756ft 517kts
31-Dec-11 14:15 21.530930 -98.553657 10 27764ft 522kts
31-Dec-11 14:16 21.672135 -98.520482 9 28750ft 521kts
31-Dec-11 14:17 21.814945 -98.486876 9 29747ft 519kts
31-Dec-11 14:18 21.954540 -98.453944 9 30706ft 517kts
31-Dec-11 14:19 22.096684 -98.420273 9 30748ft 516kts
31-Dec-11 14:20 22.236834 -98.386968 9 30750ft 516kts
31-Dec-11 14:21 22.376380 -98.353744 9 30750ft 515kts
31-Dec-11 14:22 22.514987 -98.320812 9 30750ft 516kts
31-Dec-11 14:23 22.657891 -98.286834 9 30746ft 519kts
31-Dec-11 14:24 22.800201 -98.252937 9 30745ft 519kts
31-Dec-11 14:25 22.941028 -98.219255 9 30738ft 519kts
31-Dec-11 14:26 23.081768 -98.185492 9 30739ft 519kts
31-Dec-11 14:27 23.222624 -98.151627 9 30736ft 519kts
31-Dec-11 14:28 23.363338 -98.117728 9 30732ft 519kts
31-Dec-11 14:29 23.505583 -98.083403 9 30729ft 519kts
31-Dec-11 14:30 23.645195 -98.049669 9 30727ft 519kts
31-Dec-11 14:31 23.787402 -98.015221 9 30727ft 519kts
31-Dec-11 14:32 23.928257 -97.981014 9 30729ft 519kts
31-Dec-11 14:33 24.072018 -97.946013 9 30733ft 519kts
31-Dec-11 14:34 24.213288 -97.911521 9 30735ft 519kts
31-Dec-11 14:35 24.354118 -97.877049 9 30739ft 519kts
31-Dec-11 14:36 24.494614 -97.842502 9 30744ft 519kts
31-Dec-11 14:37 24.635373 -97.807758 9 30749ft 519kts
31-Dec-11 14:38 24.776206 -97.772885 9 30752ft 519kts
31-Dec-11 14:39 24.918079 -97.737673 9 30755ft 520kts
31-Dec-11 14:40 25.059428 -97.702507 9 30757ft 519kts
31-Dec-11 14:41 25.200348 -97.667372 9 30758ft 519kts
31-Dec-11 14:42 25.341482 -97.632115 9 30763ft 519kts
31-Dec-11 14:43 25.600781 -97.567074 9 30772ft 519kts
31-Dec-11 14:45 25.740529 -97.531550 10 30759ft 519kts
31-Dec-11 14:46 25.861254 -97.444583 39 30771ft 531kts
31-Dec-11 14:47 25.996748 -97.385940 3 30748ft 520kts
31-Dec-11 14:48 26.139755 -97.381581 354 30744ft 514kts
31-Dec-11 14:49 26.283327 -97.387546 354 30745ft 513kts
31-Dec-11 14:50 26.425749 -97.392756 354 30747ft 513kts
31-Dec-11 14:51 26.569988 -97.397718 354 30747ft 513kts
31-Dec-11 14:52 26.712773 -97.402689 354 30749ft 512kts
31-Dec-11 14:53 26.855352 -97.407766 354 30745ft 513kts
31-Dec-11 14:54 26.998926 -97.412834 354 30732ft 514kts
31-Dec-11 14:55 27.141545 -97.417934 357 30728ft 511kts
31-Dec-11 14:56 27.282761 -97.429141 354 30728ft 511kts
31-Dec-11 14:57 27.424345 -97.442976 4 30700ft 511kts
31-Dec-11 14:58 27.558224 -97.389195 24 30730ft 509kts
31-Dec-11 14:59 27.676534 -97.335926 17 30575ft 515kts
31-Dec-11 15:00 27.813226 -97.285970 13 29068ft 503kts
31-Dec-11 15:01 27.947231 -97.238584 14 27591ft 510kts
31-Dec-11 15:02 28.083707 -97.189679 14 26077ft 505kts
31-Dec-11 15:03 28.214739 -97.142431 15 24590ft 490kts
31-Dec-11 15:04 28.343504 -97.096013 15 23090ft 482kts
31-Dec-11 15:05 28.470420 -97.050096 15 21591ft 474kts
31-Dec-11 15:06 28.594404 -97.005139 15 20096ft 466kts
31-Dec-11 15:07 28.717882 -96.960304 15 18584ft 457kts
31-Dec-11 15:08 28.838646 -96.916273 15 17074ft 449kts
31-Dec-11 15:09 28.956147 -96.873358 15 15577ft 440kts
31-Dec-11 15:10 29.071881 -96.830975 15 14075ft 431kts
31-Dec-11 15:11 29.178608 -96.772056 33 12557ft 426kts
31-Dec-11 15:12 29.264319 -96.679963 47 11063ft 421kts
31-Dec-11 15:13 29.335107 -96.573254 54 9558ft 416kts
31-Dec-11 15:14 29.391682 -96.469841 58 8167ft 410kts
31-Dec-11 15:15 29.448993 -96.358178 59 6670ft 404kts
31-Dec-11 15:16 29.505998 -96.245869 59 5152ft 399kts
31-Dec-11 15:17 29.560391 -96.138312 59 3667ft 389kts
31-Dec-11 15:18 29.614397 -96.031327 59 2791ft 382kts
31-Dec-11 15:19 29.667840 -95.925161 59 2790ft 382kts
31-Dec-11 15:20 29.721069 -95.819113 59 2776ft 382kts
31-Dec-11 15:21 29.774151 -95.713219 60 2744ft 382kts
31-Dec-11 15:22 29.827378 -95.606507 59 2756ft 382kts
31-Dec-11 15:23 29.898423 -95.549555 21 2818ft 261kts
31-Dec-11 15:24 29.952905 -95.491935 52 1617ft 266kts
31-Dec-11 15:25 29.986809 -95.421770 73 890ft 223kts
31-Dec-11 15:26 29.993662 -95.359994 88 193ft 170kts
31-Dec-11 15:27 29.992490 -95.325348 180 110ft 24kts
31-Dec-11 15:28 29.990050 -95.332577 242 110ft 21kts
31-Dec-11 15:29 29.988041 -95.336650 210 110ft 1kts
31-Dec-11 15:30 29.988039 -95.336651 209 110ft 0kts

Navigation Log

Ident Type
Flight plan parsing failed, navigation log unavailable